Latest Weather Observations for Derby

IDW60801

Issued at 2:02 pm WST Sunday 7 February 2016 (issued every 30 minutes, with the page automatically refreshed every 10 minutes)

About weather observations | Map of weather stations | Latest weather observations for WA | Other Formats
Station Details ID: 003032 Name: DERBY AERO Lat: -17.37 Lon: 123.66 Height: 6.2 m
Data from the previous 72 hours. | See also: Recent months at Derby
Date/Time
WST
Temp
°C
App
Temp
°C
Dew
Point
Rel
Hum
%
Delta-T
°C
Wind Press
QNH
hPa
Press
MSL
hPa
Rain
since 9 am
mm
Dir
 
Spd
km/h
Gust
km/h
Spd
kts
Gust
kts
07/02:00pm 38.1 39.7 20.0 35 12.2 SSW 11 22 6 12 1005.3 1005.3 0.0
07/01:30pm 38.2 39.2 18.6 31 13.0 ESE 11 26 6 14 1005.6 1005.6 0.0
07/01:00pm 38.0 38.9 21.6 38 11.3 WNW 19 30 10 16 1006.1 1006.1 0.0
07/12:30pm 38.7 37.1 15.1 24 14.9 ESE 17 28 9 15 1006.4 1006.4 0.0
07/12:00pm 37.7 40.4 21.4 39 11.2 SW 9 15 5 8 1006.8 1006.8 0.0
07/11:30am 36.4 39.9 22.2 44 9.8 SE 7 19 4 10 1007.2 1007.2 0.0
07/11:00am 37.0 40.4 22.7 43 9.9 ESE 9 17 5 9 1007.5 1007.5 0.0
07/10:30am 35.3 39.0 23.3 50 8.4 S 9 15 5 8 1007.9 1007.9 0.0
07/10:00am 34.3 38.4 23.9 54 7.3 SSE 9 15 5 8 1008.3 1008.3 0.0
07/09:30am 33.0 36.5 24.2 60 6.2 SSE 13 20 7 11 1008.6 1008.6 0.0
07/09:00am 32.8 37.2 25.6 66 5.1 SSE 13 17 7 9 1008.7 1008.7 0.0
07/08:30am 31.2 35.0 25.3 71 4.2 S 15 20 8 11 1008.7 1008.7 0.0
07/08:00am 30.1 34.1 25.6 77 3.2 S 15 20 8 11 1008.5 1008.5 0.0
07/07:30am 29.5 33.9 25.7 80 2.7 S 13 17 7 9 1008.2 1008.2 0.0
07/07:00am 28.6 33.2 25.4 83 2.3 S 11 17 6 9 1008.0 1008.0 0.0
07/06:30am 28.2 33.2 25.4 85 2.0 SSE 9 11 5 6 1007.8 1007.8 0.0
07/06:00am 27.5 31.9 25.1 87 1.7 SSE 11 15 6 8 1007.5 1007.5 0.0
07/05:30am 27.7 31.5 25.3 87 1.7 S 15 19 8 10 1007.1 1007.1 0.0
07/05:00am 27.4 31.5 24.5 84 2.0 S 11 13 6 7 1006.9 1006.9 0.0
07/04:30am 27.7 31.1 24.7 84 2.1 S 15 19 8 10 1006.9 1006.9 0.0
07/04:00am 27.8 31.7 24.8 84 2.1 S 13 17 7 9 1006.6 1006.6 0.0
07/03:30am 27.9 32.0 24.5 82 2.4 S 11 13 6 7 1006.5 1006.5 0.0
07/03:00am 27.9 31.7 24.1 80 2.6 S 11 15 6 8 1006.4 1006.4 0.0
07/02:30am 28.0 31.6 23.8 78 2.9 S 11 13 6 7 1006.4 1006.4 0.0
07/02:00am 28.2 31.8 23.1 74 3.5 S 9 11 5 6 1006.2 1006.2 0.0
07/01:30am 28.4 31.7 22.6 71 3.9 S 9 11 5 6 1006.1 1006.1 0.0
07/01:00am 28.7 32.2 22.2 68 4.4 S 7 9 4 5 1006.2 1006.2 0.0
07/12:30am 29.0 32.2 21.7 64 4.9 SW 7 11 4 6 1006.5 1006.5 0.0
07/12:00am 29.3 32.6 21.8 64 5.1 SSW 7 11 4 6 1006.7 1006.7 0.0
 
Date/Time
WST
Temp
°C
App
Temp
°C
Dew
Point
Rel
Hum
%
Delta-T
°C
Wind Press
QNH
hPa
Press
MSL
hPa
Rain
since 9 am
mm
Dir
 
Spd
km/h
Gust
km/h
Spd
kts
Gust
kts
06/11:30pm 29.7 32.6 21.1 60 5.7 SW 7 13 4 7 1007.0 1007.0 0.0
06/11:00pm 30.0 33.1 21.4 60 5.8 WSW 7 9 4 5 1007.3 1007.3 0.0
06/10:30pm 30.4 33.4 21.2 58 6.2 WSW 7 9 4 5 1007.5 1007.5 0.0
06/10:00pm 30.7 32.4 20.9 56 6.5 WSW 13 19 7 10 1007.7 1007.7 0.0
06/09:30pm 31.2 34.5 23.8 64 5.1 W 13 17 7 9 1007.3 1007.3 0.0
06/09:00pm 31.1 33.8 23.5 64 5.3 WNW 15 19 8 10 1007.3 1007.3 0.0
06/08:30pm 31.5 34.1 23.9 64 5.3 WNW 17 22 9 12 1007.0 1007.0 0.0
06/08:00pm 31.6 35.3 25.7 71 4.2 NW 17 19 9 10 1006.7 1006.7 0.0
06/07:30pm 31.9 34.3 25.2 67 4.7 NW 22 28 12 15 1006.3 1006.3 0.0
06/07:00pm 32.0 34.7 25.6 69 4.6 NNW 22 26 12 14 1005.7 1005.7 0.0
06/06:30pm 32.2 34.4 24.8 65 5.2 NNW 22 26 12 14 1005.3 1005.3 0.0
06/06:00pm 32.9 34.0 24.4 61 6.0 NW 26 32 14 17 1004.5 1004.4 0.0
06/05:30pm 36.9 38.4 20.6 38 11.0 ESE 13 20 7 11 1004.2 1004.1 0.0
06/05:00pm 37.0 38.4 20.3 37 11.3 SE 13 20 7 11 1004.2 1004.1 0.0
06/04:30pm 37.5 38.5 20.3 36 11.6 ESE 15 26 8 14 1003.9 1003.8 0.0
06/04:00pm 37.1 38.7 20.8 38 11.1 SE 13 24 7 13 1003.9 1003.8 0.0
06/03:30pm 37.3 38.7 21.8 40 10.6 SSW 17 30 9 16 1003.9 1003.8 0.0
06/03:00pm 36.7 38.2 21.3 40 10.5 SSE 15 30 8 16 1004.3 1004.2 0.0
06/02:30pm 36.2 38.7 22.4 45 9.5 S 13 20 7 11 1004.7 1004.7 0.0
06/02:00pm 36.5 37.9 20.3 38 10.9 S 13 20 7 11 1005.1 1005.1 0.0
06/01:30pm 36.0 36.8 20.7 41 10.3 SSE 17 24 9 13 1005.5 1005.5 0.0
06/01:00pm 36.0 38.4 22.9 46 9.1 S 15 24 8 13 1005.9 1005.9 0.0
06/12:30pm 34.6 36.8 22.6 49 8.3 SW 15 28 8 15 1006.4 1006.4 0.0
06/12:00pm 34.3 37.2 22.4 50 8.2 SW 11 20 6 11 1006.8 1006.8 0.0
06/11:30am 34.6 37.0 22.3 48 8.4 SW 13 22 7 12 1007.4 1007.4 0.0
06/11:00am 34.2 36.9 22.9 51 7.8 SSW 13 24 7 13 1007.8 1007.8 0.0
06/10:30am 33.4 36.1 22.8 53 7.3 SW 13 24 7 13 1008.2 1008.2 0.0
06/10:00am 32.4 34.2 21.9 54 7.1 WSW 15 20 8 11 1008.5 1008.5 0.0
06/09:30am 31.2 33.0 22.5 60 5.9 WSW 17 22 9 12 1008.9 1008.9 0.0
06/09:00am 30.9 33.1 23.3 64 5.2 WSW 17 24 9 13 1008.9 1008.9 0.0
06/08:30am 30.4 33.3 23.1 65 5.0 WSW 13 19 7 10 1009.0 1009.0 0.0
06/08:00am 29.1 31.9 21.6 64 5.0 S 9 13 5 7 1009.0 1009.0 0.0
06/07:30am 28.7 31.2 21.7 66 4.7 ESE 11 15 6 8 1009.2 1009.2 0.0
06/07:00am 27.7 31.2 22.2 72 3.7 E 7 13 4 7 1009.3 1009.3 0.0
06/06:30am 26.9 31.0 22.3 76 3.1 E 4 7 2 4 1008.9 1008.9 0.0
06/06:00am 26.5 29.3 22.3 78 2.8 S 11 19 6 10 1008.9 1008.9 0.0
06/05:30am 26.6 29.9 21.8 75 3.2 E 7 9 4 5 1008.4 1008.4 0.0
06/05:00am 26.4 29.2 21.6 75 3.2 NE 9 11 5 6 1007.8 1007.8 0.0
06/04:30am 26.4 29.2 21.6 75 3.2 NE 9 15 5 8 1007.5 1007.5 0.0
06/04:00am 26.6 29.0 22.2 77 3.0 ENE 13 17 7 9 1007.5 1007.5 0.0
06/03:30am 26.5 28.8 22.1 77 3.0 ENE 13 19 7 10 1007.3 1007.3 0.0
06/03:00am 26.5 28.2 23.0 81 2.4 ESE 19 22 10 12 1007.3 1007.3 0.0
06/02:30am 26.9 30.0 22.9 79 2.7 WSW 11 15 6 8 1006.5 1006.5 0.0
06/02:00am 27.0 29.2 22.6 77 3.0 SW 15 20 8 11 1006.7 1006.7 0.0
06/01:30am 26.7 26.3 22.3 77 3.0 SW 28 35 15 19 1006.7 1006.7 0.0
06/01:00am 26.6 26.1 22.2 77 3.0 SW 28 44 15 24 1006.8 1006.8 0.0
06/12:30am 26.2 27.2 23.5 85 1.8 S 24 32 13 17 1007.7 1007.7 0.0
06/12:00am 26.0 25.7 23.3 85 1.8 SSE 30 43 16 23 1008.8 1008.8 0.0
 
Date/Time
WST
Temp
°C
App
Temp
°C
Dew
Point
Rel
Hum
%
Delta-T
°C
Wind Press
QNH
hPa
Press
MSL
hPa
Rain
since 9 am
mm
Dir
 
Spd
km/h
Gust
km/h
Spd
kts
Gust
kts
05/11:30pm 30.0 30.3 22.9 65 4.9 SSW 26 35 14 19 1008.6 1008.6 0.0
05/11:00pm 30.5 31.5 22.1 61 5.7 SW 20 24 11 13 1008.4 1008.4 0.0
05/10:30pm 30.8 31.2 22.4 61 5.7 WSW 24 33 13 18 1008.2 1008.2 0.0
05/10:00pm 31.2 31.9 23.0 61 5.6 W 24 32 13 17 1007.5 1007.5 0.0
05/09:30pm 31.1 32.9 24.2 66 4.8 WNW 22 32 12 17 1007.1 1007.1 0.0
05/09:00pm 31.3 32.6 24.7 68 4.6 WNW 26 32 14 17 1007.0 1007.0 0.0
05/08:30pm 31.7 34.4 24.8 67 4.9 WNW 19 22 10 12 1006.9 1006.9 0.0
05/08:00pm 31.6 34.6 25.5 70 4.3 NW 20 26 11 14 1006.5 1006.5 0.0
05/07:30pm 31.9 32.7 25.0 67 4.9 NW 30 35 16 19 1006.1 1006.1 0.0
05/07:00pm 31.7 32.9 25.1 68 4.7 NNW 28 35 15 19 1005.6 1005.6 0.0
05/06:30pm 31.8 31.9 24.9 67 4.9 NNW 33 41 18 22 1005.0 1005.0 0.0
05/06:00pm 32.7 33.3 24.7 62 5.6 NNW 30 35 16 19 1004.6 1004.5 0.0
05/05:30pm 34.0 34.2 23.4 54 7.4 NNW 28 33 15 18 1004.2 1004.1 0.0
05/05:00pm 34.5 34.4 22.9 51 8.0 NNW 28 33 15 18 1004.2 1004.1 0.0
05/04:30pm 36.1 36.4 22.3 45 9.5 NW 24 30 13 16 1004.0 1003.9 0.0
05/04:00pm 35.7 36.0 22.3 46 9.2 NW 24 30 13 16 1003.7 1003.6 0.0
05/03:30pm 36.3 37.5 22.1 43 9.8 NW 19 26 10 14 1003.9 1003.8 0.0
05/03:00pm 36.0 37.0 22.2 45 9.5 NW 20 26 11 14 1004.3 1004.2 0.0
05/02:30pm 36.6 37.7 22.4 44 9.8 WNW 20 32 11 17 1004.6 1004.5 0.0
05/02:00pm 36.5 37.8 22.6 44 9.6 NW 20 30 11 16 1005.0 1005.0 0.0
05/01:30pm 36.2 38.3 23.1 47 9.1 NW 17 24 9 13 1005.2 1005.2 0.0
05/01:00pm 35.2 37.7 22.5 47 8.8 NW 13 22 7 12 1005.6 1005.6 0.0
05/12:30pm 35.5 38.0 23.1 48 8.6 NW 15 28 8 15 1006.2 1006.2 0.0
05/12:00pm 35.0 38.0 23.3 50 8.2 WSW 13 20 7 11 1006.7 1006.7 0.0
05/11:30am 33.7 36.4 23.4 55 7.2 WSW 15 20 8 11 1007.3 1007.3 0.0
05/11:00am 33.9 37.1 22.3 50 8.0 WSW 9 15 5 8 1007.8 1007.8 0.0
05/10:30am 33.5 36.5 22.6 53 7.5 SSW 11 17 6 9 1008.2 1008.2 0.0
05/10:00am 32.8 36.1 22.6 55 7.0 SW 9 19 5 10 1008.6 1008.6 0.0
05/09:30am 31.8 34.5 22.2 56 6.5 WSW 11 19 6 10 1009.1 1009.1 0.0
05/09:00am 30.9 34.0 23.5 64 5.1 WSW 13 17 7 9 1009.4 1009.4 0.0
05/08:30am 30.9 34.5 24.3 68 4.6 SW 13 20 7 11 1009.3 1009.3 0.0
05/08:00am 30.4 34.5 24.5 70 4.1 SSW 11 20 6 11 1009.5 1009.5 0.0
05/07:30am 29.4 34.3 24.7 76 3.3 SW 7 15 4 8 1009.4 1009.4 0.0
05/07:00am 28.9 34.9 24.2 76 3.3 CALM 0 6 0 3 1009.4 1009.4 0.0
05/06:30am 28.0 34.1 24.4 81 2.5 CALM 0 0 0 0 1009.2 1009.2 0.0
05/06:00am 27.5 33.6 24.4 83 2.2 CALM 0 0 0 0 1009.0 1009.0 0.0
05/05:30am 27.2 33.2 24.3 84 2.0 CALM 0 2 0 1 1008.4 1008.4 0.0
05/05:00am 27.2 32.0 24.1 83 2.1 WSW 6 7 3 4 1007.8 1007.8 0.0
05/04:30am 27.4 31.3 24.3 83 2.1 WSW 11 13 6 7 1007.4 1007.4 0.0
05/04:00am 27.7 30.9 24.3 82 2.4 W 15 20 8 11 1007.1 1007.1 0.0
05/03:30am 27.9 30.7 24.3 81 2.5 W 17 22 9 12 1007.0 1007.0 0.0
05/03:00am 28.1 31.3 24.3 80 2.6 W 15 20 8 11 1007.0 1007.0 0.0
05/02:30am 28.1 31.2 24.1 79 2.8 WNW 15 19 8 10 1007.0 1007.0 0.0
05/02:00am 28.3 31.9 23.7 76 3.2 WNW 11 15 6 8 1007.0 1007.0 0.0
05/01:30am 28.4 31.6 23.1 73 3.6 NW 11 15 6 8 1007.1 1007.1 0.0
05/01:00am 28.7 31.2 23.1 71 3.8 WNW 15 17 8 9 1007.1 1007.1 0.0
05/12:30am 28.9 31.8 23.1 71 4.0 WNW 13 15 7 8 1007.2 1007.2 0.0
05/12:00am 29.2 31.9 22.9 69 4.3 WNW 13 17 7 9 1007.3 1007.3 0.0
 
Date/Time
WST
Temp
°C
App
Temp
°C
Dew
Point
Rel
Hum
%
Delta-T
°C
Wind Press
QNH
hPa
Press
MSL
hPa
Rain
since 9 am
mm
Dir
 
Spd
km/h
Gust
km/h
Spd
kts
Gust
kts
04/11:30pm 29.5 31.4 22.7 67 4.6 WNW 17 22 9 12 1007.4 1007.4 0.0
04/11:00pm 29.6 31.5 22.8 67 4.6 WNW 17 22 9 12 1007.6 1007.6 0.0
04/10:30pm 29.9 31.9 22.9 66 4.8 NW 17 22 9 12 1007.7 1007.7 0.0
04/10:00pm 30.2 31.8 22.9 65 5.0 NW 19 24 10 13 1007.8 1007.8 0.0
04/09:30pm 30.5 31.4 22.7 63 5.3 WNW 22 28 12 15 1007.6 1007.6 0.0
04/09:00pm 31.0 32.0 22.9 62 5.6 WNW 22 30 12 16 1007.3 1007.3 0.0
04/08:30pm 31.2 32.7 24.3 66 4.8 NNW 24 30 13 16 1007.1 1007.1 0.0
04/08:00pm 31.1 31.5 23.7 64 5.1 NNW 28 35 15 19 1006.8 1006.8 0.0
04/07:30pm 31.1 31.5 23.7 64 5.1 NNW 28 35 15 19 1006.6 1006.6 0.0
04/07:00pm 31.3 31.7 23.1 61 5.7 NNW 26 32 14 17 1006.2 1006.2 0.0
04/06:30pm 31.6 32.3 23.7 63 5.5 NNW 26 32 14 17 1005.8 1005.8 0.0
04/06:00pm 32.3 33.6 23.3 59 6.2 NNW 22 28 12 15 1005.5 1005.5 0.0
04/05:30pm 33.1 33.9 23.1 55 6.9 NNW 24 30 13 16 1005.3 1005.3 0.0
04/05:00pm 34.2 34.2 21.6 47 8.6 NW 24 28 13 15 1005.2 1005.2 0.0
04/04:30pm 34.7 34.9 20.6 43 9.5 NNW 20 28 11 15 1005.2 1005.2 0.0
04/04:00pm 35.2 34.5 19.6 40 10.4 NNW 22 28 12 15 1005.1 1005.1 0.0
04/03:30pm 35.5 35.5 19.8 39 10.5 NNW 19 26 10 14 1005.1 1005.1 0.0
04/03:00pm 35.4 34.8 18.9 37 10.9 NNW 20 33 11 18 1005.4 1005.4 0.0
04/02:30pm 35.0 35.2 19.4 40 10.3 NNW 17 30 9 16 1005.6 1005.6 0.0

Other Formats:

Comma delimited format used in spreadsheet applications
http://www.bom.gov.au/fwo/IDW60801/IDW60801.95205.axf

JavaScript Object Notation format (JSON) in row-major order
http://www.bom.gov.au/fwo/IDW60801/IDW60801.95205.json